Time;durP1;ratioP1;P1;durP2;ratioP2;P2;SDS_P1;SDS_P2;PMS_P1;PMS_P2;Temp;Humidity;BMP_temperature;BMP_pressure;BME280_temperature;BME280_humidity;BME280_pressure;Samples;Min_cycle;Max_cycle;Signal;HPM_P1;HPM_P2
2022/12/03 00:00:35;;;;;;;40.70;24.10;;;;;;;1.20;100.00;96766.19;5033022;28;20226;-66
2022/12/03 00:03:00;;;;;;;40.23;23.33;;;;;;;1.22;100.00;96762.47;5033474;28;20221;-65
2022/12/03 00:05:26;;;;;;;42.27;24.97;;;;;;;1.30;100.00;96765.97;5033509;28;20687;-65
2022/12/03 00:07:51;;;;;;;38.10;23.23;;;;;;;1.25;100.00;96763.91;5033381;28;20662;-65
2022/12/03 00:10:16;;;;;;;40.73;24.77;;;;;;;1.22;100.00;96766.84;5033644;28;20206;-65
2022/12/03 00:12:42;;;;;;;39.83;24.03;;;;;;;1.19;100.00;96764.56;5033566;28;20182;-65
2022/12/03 00:15:08;;;;;;;41.40;23.37;;;;;;;1.17;100.00;96776.88;5033809;28;20190;-65
2022/12/03 00:17:33;;;;;;;40.60;23.80;;;;;;;1.08;100.00;96768.34;5033479;28;20201;-65
2022/12/03 00:19:59;;;;;;;43.13;25.67;;;;;;;1.19;100.00;96773.13;5033275;28;20238;-67
2022/12/03 00:22:24;;;;;;;36.83;23.13;;;;;;;1.23;100.00;96769.22;5033353;28;20194;-65
2022/12/03 00:24:49;;;;;;;38.07;23.23;;;;;;;1.43;100.00;96769.63;5033577;28;20212;-65
2022/12/03 00:27:15;;;;;;;40.67;24.17;;;;;;;1.50;100.00;96773.16;5032251;28;20259;-67
2022/12/03 00:29:40;;;;;;;36.70;22.47;;;;;;;1.57;100.00;96766.31;5033103;28;20183;-66
2022/12/03 00:32:06;;;;;;;33.20;21.17;;;;;;;1.43;100.00;96774.78;5032866;28;20325;-66
2022/12/03 00:34:31;;;;;;;32.90;20.77;;;;;;;1.39;100.00;96780.47;5033019;28;20993;-66
2022/12/03 00:36:56;;;;;;;34.23;22.60;;;;;;;1.58;100.00;96774.84;5033111;28;20187;-66
2022/12/03 00:39:21;;;;;;;33.47;21.93;;;;;;;1.65;100.00;96768.03;5033301;28;20191;-66
2022/12/03 00:41:47;;;;;;;32.33;21.37;;;;;;;1.52;100.00;96773.75;5032648;28;20190;-64
2022/12/03 00:44:12;;;;;;;31.10;19.87;;;;;;;1.65;100.00;96770.63;5033024;28;20179;-64
2022/12/03 00:46:38;;;;;;;30.97;21.10;;;;;;;1.76;100.00;96761.69;5033151;28;20203;-65
2022/12/03 00:49:03;;;;;;;30.00;19.87;;;;;;;1.74;100.00;96767.00;5032793;28;20213;-66
2022/12/03 00:51:28;;;;;;;33.43;19.83;;;;;;;1.61;100.00;96769.38;5033010;28;20190;-66
2022/12/03 00:53:54;;;;;;;31.37;19.87;;;;;;;1.45;100.00;96780.56;5033163;28;20183;-66
2022/12/03 00:56:19;;;;;;;30.10;18.97;;;;;;;1.53;100.00;96770.22;5033003;28;20195;-66
2022/12/03 00:58:44;;;;;;;30.37;19.27;;;;;;;1.55;100.00;96773.44;5032400;28;20186;-67
2022/12/03 01:01:10;;;;;;;30.97;20.27;;;;;;;1.58;100.00;96770.50;5032042;28;20253;-67
2022/12/03 01:03:35;;;;;;;30.10;19.17;;;;;;;1.64;100.00;96777.56;5032371;28;20559;-66
2022/12/03 01:06:00;;;;;;;33.77;19.30;;;;;;;1.76;100.00;96775.41;5032608;28;20201;-66
2022/12/03 01:08:26;;;;;;;30.23;18.90;;;;;;;1.74;100.00;96768.78;5032924;28;20209;-65
2022/12/03 01:10:51;;;;;;;27.97;18.53;;;;;;;1.75;100.00;96772.97;5032258;28;20244;-67
2022/12/03 01:13:16;;;;;;;29.97;19.63;;;;;;;1.68;100.00;96778.03;5032525;28;20206;-65
2022/12/03 01:15:42;;;;;;;28.53;19.50;;;;;;;1.68;100.00;96775.44;5032818;28;20182;-66
2022/12/03 01:18:07;;;;;;;31.73;19.87;;;;;;;1.69;100.00;96771.88;5032847;28;20705;-65
2022/12/03 01:20:35;;;;;;;31.40;19.70;;;;;;;1.83;100.00;96775.53;5032213;28;20300;-66
2022/12/03 01:23:00;;;;;;;27.30;18.87;;;;;;;1.88;100.00;96775.81;5032351;28;20590;-66
2022/12/03 01:25:25;;;;;;;32.13;19.73;;;;;;;1.76;100.00;96772.00;5014177;28;20278;-65
2022/12/03 01:27:50;;;;;;;26.90;18.27;;;;;;;1.82;100.00;96779.88;5032350;28;20209;-65
2022/12/03 01:30:16;;;;;;;30.43;19.57;;;;;;;1.77;100.00;96777.00;5032936;28;20185;-66
2022/12/03 01:32:41;;;;;;;28.17;18.50;;;;;;;1.64;100.00;96781.94;5032638;28;20516;-65
2022/12/03 01:35:07;;;;;;;29.47;19.17;;;;;;;1.71;100.00;96782.06;5031771;28;20687;-66
2022/12/03 01:37:32;;;;;;;28.00;18.93;;;;;;;1.73;100.00;96780.88;5032919;28;20229;-65
2022/12/03 01:39:57;;;;;;;29.70;19.13;;;;;;;1.69;100.00;96779.63;5032936;28;20214;-65
2022/12/03 01:42:32;;;;;;;32.37;19.03;;;;;;;1.67;100.00;96774.63;5036652;28;20182;-65
2022/12/03 01:44:59;;;;;;;30.13;19.10;;;;;;;1.54;100.00;96779.56;5036503;28;20190;-65
2022/12/03 01:47:30;;;;;;;28.73;19.07;;;;;;;1.58;100.00;96778.25;5020172;28;20182;-67
2022/12/03 01:50:01;;;;;;;30.83;18.90;;;;;;;1.55;100.00;96790.72;5035896;28;20266;-65
2022/12/03 01:52:31;;;;;;;28.60;19.37;;;;;;;1.58;100.00;96783.41;5036066;28;20210;-65
2022/12/03 01:55:00;;;;;;;29.87;20.07;;;;;;;1.66;100.00;96780.00;5036332;28;20195;-65
2022/12/03 01:57:30;;;;;;;31.70;19.10;;;;;;;1.58;100.00;96778.25;5035832;28;20193;-65
2022/12/03 01:59:57;;;;;;;30.73;19.20;;;;;;;1.67;100.00;96787.53;5035933;28;20244;-65
2022/12/03 02:02:28;;;;;;;32.10;20.03;;;;;;;1.68;100.00;96788.34;5035476;28;20202;-65
2022/12/03 02:04:54;;;;;;;29.97;19.03;;;;;;;1.54;100.00;96791.69;5036140;28;20175;-66
2022/12/03 02:07:19;;;;;;;30.17;19.27;;;;;;;1.58;100.00;96786.00;5035870;28;20197;-65
2022/12/03 02:09:44;;;;;;;29.87;19.03;;;;;;;1.64;100.00;96784.50;5036098;28;20535;-65
2022/12/03 02:12:10;;;;;;;33.87;20.80;;;;;;;1.52;100.00;96785.88;5036030;28;20236;-65
2022/12/03 02:14:35;;;;;;;33.57;20.47;;;;;;;1.48;100.00;96780.25;5035844;28;20190;-65
2022/12/03 02:17:01;;;;;;;30.50;19.83;;;;;;;1.45;100.00;96783.16;5035756;28;20631;-65
2022/12/03 02:19:28;;;;;;;31.63;19.87;;;;;;;1.65;100.00;96786.13;5035710;28;20675;-65
2022/12/03 02:22:08;;;;;;;30.33;19.53;;;;;;;1.58;100.00;96783.41;5035887;28;20218;-65
2022/12/03 02:24:46;;;;;;;31.30;20.07;;;;;;;1.54;100.00;96782.16;5035990;28;20174;-65
2022/12/03 02:27:12;;;;;;;33.53;19.63;;;;;;;1.40;100.00;96775.13;5034469;28;20203;-65
2022/12/03 02:29:37;;;;;;;30.43;20.00;;;;;;;1.45;100.00;96770.25;5035461;28;20190;-66
2022/12/03 02:32:03;;;;;;;30.93;20.57;;;;;;;1.50;100.00;96775.72;5035048;28;20554;-66
2022/12/03 02:34:40;;;;;;;29.07;18.70;;;;;;;1.52;100.00;96778.13;5034771;28;20183;-65
2022/12/03 02:37:18;;;;;;;34.67;20.03;;;;;;;1.44;100.00;96775.59;5035350;28;20263;-65
2022/12/03 02:39:49;;;;;;;34.70;20.57;;;;;;;1.44;100.00;96783.34;5017590;28;20247;-65
2022/12/03 02:42:34;;;;;;;31.63;21.23;;;;;;;1.41;100.00;96781.88;5035149;28;20654;-65
2022/12/03 02:45:03;;;;;;;33.97;20.77;;;;;;;1.41;100.00;96779.31;5034988;28;20356;-65
2022/12/03 02:47:30;;;;;;;31.97;20.13;;;;;;;1.54;100.00;96776.19;5034948;28;20183;-65
2022/12/03 02:49:57;;;;;;;32.73;19.87;;;;;;;1.41;100.00;96781.88;5035067;28;20191;-65
2022/12/03 02:52:23;;;;;;;31.13;20.27;;;;;;;1.57;100.00;96784.38;5034892;28;20245;-65
2022/12/03 02:54:48;;;;;;;34.90;20.87;;;;;;;1.62;100.00;96783.88;5035008;28;20190;-67
2022/12/03 02:57:15;;;;;;;36.27;21.87;;;;;;;1.59;100.00;96784.22;5017083;28;20187;-65
2022/12/03 02:59:43;;;;;;;32.53;20.63;;;;;;;1.53;100.00;96788.28;5035318;28;20201;-65
2022/12/03 03:02:10;;;;;;;35.63;20.20;;;;;;;1.43;100.00;96779.97;5033762;28;20226;-65
2022/12/03 03:04:36;;;;;;;31.27;20.37;;;;;;;1.50;100.00;96782.66;5034647;28;20636;-65
2022/12/03 03:07:01;;;;;;;33.43;20.17;;;;;;;1.67;100.00;96782.38;5034712;28;20197;-66
2022/12/03 03:09:26;;;;;;;33.60;20.50;;;;;;;1.68;100.00;96789.16;5034520;28;20484;-66
2022/12/03 03:11:52;;;;;;;31.70;20.13;;;;;;;1.67;100.00;96787.53;5034709;28;20179;-65
2022/12/03 03:14:17;;;;;;;35.57;22.03;;;;;;;1.69;100.00;96782.22;5035049;28;20190;-65
2022/12/03 03:16:42;;;;;;;31.77;20.93;;;;;;;1.68;100.00;96789.16;5034869;28;20578;-65
2022/12/03 03:19:08;;;;;;;33.37;20.70;;;;;;;1.92;100.00;96780.44;5034604;28;20274;-66
2022/12/03 03:21:33;;;;;;;33.40;21.37;;;;;;;1.73;100.00;96783.47;5034673;28;20203;-65
2022/12/03 03:23:59;;;;;;;33.67;21.23;;;;;;;1.88;100.00;96781.78;5034618;28;20591;-65
2022/12/03 03:26:24;;;;;;;36.13;20.27;;;;;;;1.76;100.00;96777.19;5033625;28;20195;-65
2022/12/03 03:28:50;;;;;;;34.63;20.90;;;;;;;1.67;100.00;96774.63;5034682;28;20209;-65
2022/12/03 03:31:20;;;;;;;34.67;20.43;;;;;;;1.59;100.00;96779.06;5034155;28;20222;-65
2022/12/03 03:33:47;;;;;;;33.23;19.33;;;;;;;1.86;100.00;96772.56;5033954;28;20210;-65
2022/12/03 03:36:14;;;;;;;32.13;19.23;;;;;;;2.08;100.00;96780.31;5034524;28;20293;-65
2022/12/03 03:38:40;;;;;;;32.73;20.37;;;;;;;1.96;100.00;96778.31;5034310;28;20213;-65
2022/12/03 03:41:07;;;;;;;33.00;20.10;;;;;;;2.01;100.00;96770.84;5034271;28;20238;-65
2022/12/03 03:43:34;;;;;;;35.13;19.93;;;;;;;1.92;100.00;96775.28;5034547;28;20174;-65
2022/12/03 03:46:02;;;;;;;31.80;20.07;;;;;;;1.76;100.00;96783.16;5033997;28;20642;-65
2022/12/03 03:48:27;;;;;;;31.70;19.37;;;;;;;1.98;100.00;96773.78;5034138;28;20197;-65
2022/12/03 03:50:53;;;;;;;32.40;19.90;;;;;;;1.95;100.00;96774.16;5034209;28;20187;-65
2022/12/03 03:53:20;;;;;;;34.53;21.60;;;;;;;2.00;100.00;96767.50;5016373;28;20187;-65
2022/12/03 03:55:46;;;;;;;31.50;20.30;;;;;;;1.84;100.00;96771.97;5030712;28;20290;-65
2022/12/03 03:58:12;;;;;;;32.40;20.57;;;;;;;1.73;100.00;96770.56;5021134;28;20298;-66
2022/12/03 04:00:37;;;;;;;33.50;19.93;;;;;;;1.92;100.00;96764.94;5033533;28;20347;-65
2022/12/03 04:03:03;;;;;;;34.83;20.37;;;;;;;1.82;100.00;96766.97;5032020;28;20183;-65
2022/12/03 04:05:29;;;;;;;38.77;19.57;;;;;;;1.93;100.00;96768.34;5033243;28;20253;-67
2022/12/03 04:07:54;;;;;;;31.30;18.97;;;;;;;1.90;100.00;96760.91;5017427;28;20206;-65
2022/12/03 04:13:04;;;;;;;31.10;19.50;;;;;;;1.98;100.00;96766.03;5033719;28;20214;-65
2022/12/03 04:15:29;;;;;;;27.77;17.83;;;;;;;2.13;100.00;96756.53;5033844;28;20214;-64
2022/12/03 04:20:39;;;;;;;30.37;20.50;;;;;;;2.00;100.00;96759.72;5033113;28;20309;-65
2022/12/03 04:23:05;;;;;;;33.83;20.30;;;;;;;2.17;100.00;96767.34;5033416;28;20182;-65
2022/12/03 04:30:58;;;;;;;34.37;19.17;;;;;;;2.20;100.00;96761.81;5033370;28;20260;-65
2022/12/03 04:36:08;;;;;;;30.80;18.93;;;;;;;2.28;100.00;96756.59;5017623;28;20328;-65
2022/12/03 04:38:33;;;;;;;33.30;19.37;;;;;;;2.36;100.00;96753.91;5033211;28;20258;-65
2022/12/03 04:41:03;;;;;;;32.57;19.00;;;;;;;2.01;100.00;96750.97;5033129;28;20213;-65
2022/12/03 04:43:33;;;;;;;34.60;20.17;;;;;;;2.04;100.00;96749.84;5032734;28;20187;-65
2022/12/03 04:45:59;;;;;;;32.40;18.47;;;;;;;2.17;100.00;96755.22;5033037;28;20182;-65
2022/12/03 04:48:25;;;;;;;29.93;19.43;;;;;;;2.14;100.00;96747.81;5032847;28;20186;-65
2022/12/03 04:50:50;;;;;;;34.03;19.70;;;;;;;2.23;100.00;96754.50;5032939;28;20715;-65
2022/12/03 04:53:16;;;;;;;30.17;19.57;;;;;;;2.07;100.00;96755.44;5032760;28;20194;-64
2022/12/03 04:55:41;;;;;;;32.03;19.37;;;;;;;1.96;100.00;96753.28;5033229;28;20278;-65
2022/12/03 04:58:06;;;;;;;33.60;19.93;;;;;;;1.84;100.00;96757.25;5033137;28;20183;-65
2022/12/03 05:00:32;;;;;;;33.67;20.37;;;;;;;2.10;100.00;96756.91;5032061;28;20234;-65
2022/12/03 05:02:57;;;;;;;30.83;20.03;;;;;;;1.95;100.00;96754.25;5032597;28;20198;-65
2022/12/03 05:05:22;;;;;;;30.37;19.83;;;;;;;1.85;100.00;96748.53;5032927;28;20190;-64
2022/12/03 05:07:48;;;;;;;35.67;20.67;;;;;;;1.70;100.00;96744.28;5032768;28;20194;-64
2022/12/03 05:10:13;;;;;;;32.67;19.70;;;;;;;1.72;100.00;96743.16;5032517;28;20178;-64
2022/12/03 05:12:38;;;;;;;34.17;19.87;;;;;;;1.71;100.00;96746.69;5032034;28;20187;-65
2022/12/03 05:15:04;;;;;;;34.83;21.23;;;;;;;1.92;100.00;96744.28;5032940;28;20218;-64
2022/12/03 05:17:30;;;;;;;31.27;19.97;;;;;;;2.15;100.00;96746.03;5032747;28;20197;-65
2022/12/03 05:22:39;;;;;;;29.77;18.80;;;;;;;1.82;100.00;96741.13;5032535;28;20197;-65
2022/12/03 05:25:05;;;;;;;32.57;20.13;;;;;;;1.75;100.00;96745.38;5031960;28;20644;-65
2022/12/03 05:27:31;;;;;;;29.40;18.23;;;;;;;1.78;100.00;96750.22;5032638;28;20570;-64
2022/12/03 05:29:56;;;;;;;29.50;18.27;;;;;;;1.78;100.00;96739.06;5032706;28;20225;-65
2022/12/03 05:32:21;;;;;;;27.43;18.50;;;;;;;1.86;100.00;96733.81;5031782;28;20195;-64
2022/12/03 05:34:47;;;;;;;29.40;19.87;;;;;;;1.83;100.00;96726.44;5032754;28;20194;-64
2022/12/03 05:37:12;;;;;;;28.03;18.47;;;;;;;1.99;100.00;96719.34;5032181;28;20523;-65
2022/12/03 05:39:37;;;;;;;28.97;19.33;;;;;;;2.06;100.00;96724.63;5032040;28;20186;-65
2022/12/03 05:44:47;;;;;;;28.93;19.03;;;;;;;1.93;100.00;96729.56;5032492;28;20548;-64
2022/12/03 05:47:13;;;;;;;32.43;20.03;;;;;;;2.14;100.00;96732.31;5032596;28;20187;-65
2022/12/03 05:49:38;;;;;;;30.83;19.23;;;;;;;2.08;100.00;96731.22;5032472;28;20197;-64
2022/12/03 05:52:03;;;;;;;29.87;19.57;;;;;;;1.95;100.00;96727.63;5032086;28;20647;-64
2022/12/03 05:54:29;;;;;;;30.77;19.27;;;;;;;1.98;100.00;96732.44;5032368;28;20239;-64
2022/12/03 05:56:54;;;;;;;27.50;18.70;;;;;;;1.92;100.00;96730.56;5032054;28;20190;-64
2022/12/03 05:59:20;;;;;;;29.40;19.50;;;;;;;1.97;100.00;96733.41;5032516;28;20182;-64
2022/12/03 06:01:45;;;;;;;29.40;20.20;;;;;;;1.96;100.00;96732.59;5031585;28;20588;-64
2022/12/03 06:04:10;;;;;;;31.97;21.83;;;;;;;2.14;100.00;96739.25;5032449;28;20206;-64
2022/12/03 06:06:36;;;;;;;32.97;21.83;;;;;;;2.22;100.00;96736.59;5032239;28;20179;-64
2022/12/03 06:09:01;;;;;;;38.10;22.47;;;;;;;2.04;100.00;96735.13;5032185;28;20201;-64
2022/12/03 06:11:28;;;;;;;40.23;23.03;;;;;;;1.98;100.00;96725.50;5031803;28;20198;-65
2022/12/03 06:13:54;;;;;;;31.40;19.33;;;;;;;2.09;100.00;96727.66;5032228;28;20183;-65
2022/12/03 06:16:19;;;;;;;31.90;19.97;;;;;;;1.97;100.00;96729.06;5032130;28;20674;-64
2022/12/03 06:18:44;;;;;;;28.27;19.20;;;;;;;1.96;100.00;96735.19;5032745;28;20190;-66
2022/12/03 06:21:09;;;;;;;28.20;19.40;;;;;;;1.94;100.00;96729.41;5032162;28;20213;-63
2022/12/03 06:23:36;;;;;;;28.87;19.93;;;;;;;2.08;100.00;96733.81;5031934;28;20186;-63
2022/12/03 06:26:01;;;;;;;30.90;19.03;;;;;;;1.86;100.00;96739.00;5031995;28;20182;-64
2022/12/03 06:28:26;;;;;;;30.70;19.23;;;;;;;1.89;100.00;96746.41;5035667;28;20218;-63
2022/12/03 06:30:52;;;;;;;29.63;18.67;;;;;;;1.93;100.00;96739.91;5035733;28;20191;-64
2022/12/03 06:33:17;;;;;;;32.00;19.73;;;;;;;2.07;100.00;96741.72;5017220;28;20560;-63
2022/12/03 06:35:42;;;;;;;28.60;19.67;;;;;;;2.06;100.00;96750.47;5035938;28;20512;-64
2022/12/03 06:38:08;;;;;;;30.33;19.60;;;;;;;2.20;100.00;96749.69;5035957;28;20190;-64
2022/12/03 06:40:33;;;;;;;28.53;18.10;;;;;;;2.13;100.00;96743.63;5017944;28;20242;-64
2022/12/03 06:42:58;;;;;;;30.83;20.13;;;;;;;2.08;100.00;96751.91;5035031;28;20218;-65
2022/12/03 06:45:24;;;;;;;31.83;20.13;;;;;;;1.98;100.00;96759.09;5034850;28;20225;-65
2022/12/03 06:47:49;;;;;;;27.50;18.93;;;;;;;2.07;100.00;96768.38;5035252;28;20182;-64
2022/12/03 06:50:14;;;;;;;28.60;20.00;;;;;;;2.05;100.00;96767.75;5035195;28;20194;-64
2022/12/03 06:52:40;;;;;;;28.40;19.03;;;;;;;1.82;100.00;96756.63;5035275;28;20194;-64
2022/12/03 06:55:06;;;;;;;31.73;20.50;;;;;;;1.87;100.00;96759.50;5003567;28;20215;-65
2022/12/03 06:57:31;;;;;;;35.07;22.90;;;;;;;2.06;100.00;96758.22;5031808;28;20214;-65
2022/12/03 06:59:57;;;;;;;32.80;20.43;;;;;;;1.84;100.00;96754.66;5016941;28;20561;-63
2022/12/03 07:02:22;;;;;;;32.33;19.63;;;;;;;1.71;100.00;96751.88;5034544;28;20655;-64
2022/12/03 07:04:48;;;;;;;31.43;20.30;;;;;;;1.79;100.00;96748.41;5034976;28;20199;-64
2022/12/03 07:07:13;;;;;;;36.83;20.90;;;;;;;1.87;100.00;96746.56;5034665;28;20186;-64
2022/12/03 07:09:38;;;;;;;32.43;20.00;;;;;;;1.82;100.00;96746.28;5034399;28;20585;-64
2022/12/03 07:12:04;;;;;;;34.23;21.37;;;;;;;1.77;100.00;96738.25;5034048;28;20266;-64
2022/12/03 07:14:29;;;;;;;32.73;20.70;;;;;;;1.92;100.00;96736.53;5033643;28;20194;-64
2022/12/03 07:16:55;;;;;;;34.87;22.87;;;;;;;2.05;100.00;96738.53;5034552;28;20282;-64
2022/12/03 07:19:20;;;;;;;33.03;20.63;;;;;;;2.13;100.00;96750.56;5016424;28;20273;-64
2022/12/03 07:21:46;;;;;;;34.53;20.93;;;;;;;2.22;100.00;96750.34;5033675;28;20210;-64
2022/12/03 07:24:11;;;;;;;36.03;20.70;;;;;;;2.00;100.00;96746.00;5032923;28;20194;-65
2022/12/03 07:26:37;;;;;;;32.40;21.03;;;;;;;2.12;100.00;96749.75;5033567;28;20182;-64
2022/12/03 07:29:02;;;;;;;31.47;19.53;;;;;;;2.10;100.00;96754.31;5033267;28;20194;-64
2022/12/03 07:31:28;;;;;;;32.07;20.00;;;;;;;2.10;100.00;96746.56;5033011;28;20229;-62
2022/12/03 07:33:53;;;;;;;35.53;20.67;;;;;;;1.97;100.00;96746.34;5034028;28;20186;-63
2022/12/03 07:36:19;;;;;;;36.13;22.17;;;;;;;2.08;100.00;96744.13;5034144;28;20589;-63
2022/12/03 07:38:44;;;;;;;34.23;20.77;;;;;;;1.93;100.00;96752.84;5032704;28;20273;-63
2022/12/03 07:41:10;;;;;;;35.90;22.83;;;;;;;1.95;100.00;96748.31;5034232;28;20237;-63
2022/12/03 07:43:35;;;;;;;35.60;20.23;;;;;;;1.87;100.00;96743.19;5033984;28;20248;-64
2022/12/03 07:46:00;;;;;;;32.87;19.67;;;;;;;1.98;100.00;96742.78;5033428;28;20666;-63
2022/12/03 07:48:26;;;;;;;33.87;20.43;;;;;;;1.89;100.00;96746.41;5034498;28;20333;-64
2022/12/03 07:50:52;;;;;;;36.37;21.63;;;;;;;2.00;100.00;96746.00;5034036;28;20182;-65
2022/12/03 07:53:17;;;;;;;34.57;21.30;;;;;;;1.99;100.00;96745.19;5033968;28;20193;-64
2022/12/03 07:55:42;;;;;;;34.23;21.00;;;;;;;2.05;100.00;96744.50;5033900;28;20205;-65
2022/12/03 07:58:08;;;;;;;36.03;21.13;;;;;;;1.96;100.00;96740.34;5033806;28;20190;-64
2022/12/03 08:00:33;;;;;;;37.20;21.83;;;;;;;2.08;100.00;96733.81;5033045;28;20226;-64
2022/12/03 08:02:59;;;;;;;35.70;22.27;;;;;;;1.88;100.00;96737.03;5033412;28;20260;-65
2022/12/03 08:05:25;;;;;;;34.10;22.20;;;;;;;1.93;100.00;96739.91;5033830;28;20189;-64
2022/12/03 08:07:51;;;;;;;39.07;22.27;;;;;;;1.93;100.00;96747.66;5033406;28;20243;-63
2022/12/03 08:10:16;;;;;;;33.23;20.23;;;;;;;1.65;100.00;96745.59;5033106;28;20214;-63
2022/12/03 08:12:42;;;;;;;36.27;21.80;;;;;;;1.81;100.00;96747.25;5033319;28;20640;-65
2022/12/03 08:15:19;;;;;;;34.83;21.33;;;;;;;1.94;100.00;96744.91;5033447;28;20273;-63
2022/12/03 08:17:46;;;;;;;34.73;20.87;;;;;;;1.83;100.00;96754.84;5033299;28;20178;-63
2022/12/03 08:20:16;;;;;;;34.17;21.93;;;;;;;1.86;100.00;96746.75;5033289;28;20209;-63
2022/12/03 08:22:44;;;;;;;34.13;20.87;;;;;;;1.83;100.00;96752.28;5033252;28;20590;-64
2022/12/03 08:25:20;;;;;;;35.33;21.67;;;;;;;1.93;100.00;96748.47;5032040;28;20221;-64
2022/12/03 08:27:46;;;;;;;33.47;21.07;;;;;;;1.77;100.00;96745.19;5033176;28;20189;-63
2022/12/03 08:30:13;;;;;;;32.80;20.23;;;;;;;2.31;100.00;96745.88;5032572;28;20589;-61
2022/12/03 08:32:38;;;;;;;39.83;24.73;;;;;;;2.44;100.00;96756.44;5020835;28;20690;-64
2022/12/03 08:35:11;;;;;;;38.07;21.57;;;;;;;2.13;100.00;96748.78;5032678;28;20175;-65
2022/12/03 08:37:37;;;;;;;33.30;22.03;;;;;;;1.80;100.00;96752.59;5033020;28;20270;-63
2022/12/03 08:40:19;;;;;;;36.87;21.53;;;;;;;1.99;100.00;96749.56;5032964;28;20297;-64
2022/12/03 08:42:44;;;;;;;35.10;20.97;;;;;;;1.83;100.00;96747.09;5032989;28;20187;-64
2022/12/03 08:45:28;;;;;;;32.10;20.23;;;;;;;1.68;100.00;96753.00;5032244;28;20222;-65
2022/12/03 08:47:58;;;;;;;34.67;21.37;;;;;;;1.74;100.00;96741.16;5032963;28;20178;-64
2022/12/03 08:50:32;;;;;;;33.60;21.70;;;;;;;1.91;100.00;96744.44;5032461;28;20190;-65
2022/12/03 08:53:13;;;;;;;37.43;21.30;;;;;;;1.72;100.00;96740.56;5032832;28;20182;-65
2022/12/03 08:55:44;;;;;;;38.90;22.27;;;;;;;1.57;100.00;96744.84;5032699;28;20186;-64
2022/12/03 08:58:23;;;;;;;39.27;23.07;;;;;;;1.29;100.00;96741.13;5032932;28;20212;-64
2022/12/03 09:01:23;;;;;;;39.80;22.33;;;;;;;1.52;100.00;96741.97;5032571;28;20241;-65
2022/12/03 09:03:54;;;;;;;38.13;21.70;;;;;;;1.60;100.00;96750.47;5032585;28;20264;-63
2022/12/03 09:06:21;;;;;;;41.37;22.93;;;;;;;1.64;100.00;96750.94;5032434;28;20190;-64
2022/12/03 09:08:46;;;;;;;40.00;22.07;;;;;;;1.54;100.00;96745.19;5032829;28;20225;-63
2022/12/03 09:11:12;;;;;;;42.07;22.90;;;;;;;1.43;100.00;96743.81;5032228;28;20226;-64
2022/12/03 09:13:37;;;;;;;43.60;23.60;;;;;;;1.47;100.00;96741.69;5032698;28;20189;-65
2022/12/03 09:16:03;;;;;;;40.77;22.43;;;;;;;1.49;100.00;96748.28;5032461;28;20198;-65
2022/12/03 09:18:28;;;;;;;39.30;22.57;;;;;;;1.34;100.00;96752.56;5032963;28;20191;-65
2022/12/03 09:20:54;;;;;;;38.83;20.87;;;;;;;1.33;100.00;96755.31;5032938;28;20216;-65
2022/12/03 09:23:19;;;;;;;38.77;22.40;;;;;;;1.45;100.00;96762.50;5032246;28;20182;-65
2022/12/03 09:25:45;;;;;;;39.10;22.37;;;;;;;1.28;100.00;96755.03;5031936;28;20542;-65
2022/12/03 09:28:10;;;;;;;33.70;20.13;;;;;;;1.18;100.00;96753.44;5030991;28;20185;-64
2022/12/03 09:30:35;;;;;;;36.33;20.93;;;;;;;1.10;100.00;96757.84;5031997;28;20222;-64
2022/12/03 09:33:01;;;;;;;35.57;22.43;;;;;;;1.26;100.00;96755.19;5032840;28;20186;-65
2022/12/03 09:35:26;;;;;;;38.13;21.47;;;;;;;1.16;100.00;96741.69;5032429;28;20194;-64
2022/12/03 09:37:52;;;;;;;42.33;21.97;;;;;;;1.24;100.00;96746.81;5032323;28;20183;-64
2022/12/03 09:40:18;;;;;;;34.17;21.07;;;;;;;1.13;100.00;96740.25;5032508;28;20261;-64
2022/12/03 09:42:44;;;;;;;32.27;19.53;;;;;;;1.24;100.00;96733.91;5015045;28;20190;-65
2022/12/03 09:45:11;;;;;;;35.07;20.13;;;;;;;1.36;100.00;96737.72;5031657;28;20182;-65
2022/12/03 09:47:39;;;;;;;34.13;20.07;;;;;;;1.42;100.00;96737.03;5032412;28;20201;-64
2022/12/03 09:50:05;;;;;;;31.87;19.27;;;;;;;1.58;100.00;96739.50;5032193;28;20245;-64
2022/12/03 09:52:33;;;;;;;33.77;19.70;;;;;;;1.40;100.00;96733.81;5032343;28;20195;-63
2022/12/03 09:55:11;;;;;;;29.80;17.87;;;;;;;1.60;100.00;96727.25;5032221;28;20214;-64
2022/12/03 09:57:36;;;;;;;29.40;18.17;;;;;;;1.55;100.00;96736.47;5031700;28;20611;-64
2022/12/03 10:00:13;;;;;;;30.07;19.20;;;;;;;1.76;100.00;96734.06;5031806;28;20285;-64
2022/12/03 10:02:40;;;;;;;28.47;18.13;;;;;;;2.08;100.00;96736.38;5034886;28;20186;-64
2022/12/03 10:05:07;;;;;;;29.70;18.73;;;;;;;1.96;100.00;96740.34;5035818;28;20261;-64
2022/12/03 10:07:32;;;;;;;29.20;17.87;;;;;;;2.02;100.00;96744.84;5035775;28;20281;-65
2022/12/03 10:09:58;;;;;;;27.10;19.83;;;;;;;1.87;100.00;96750.94;5035870;28;20651;-65
2022/12/03 10:12:24;;;;;;;28.20;19.87;;;;;;;1.89;100.00;96746.41;5036091;28;20201;-65
2022/12/03 10:14:50;;;;;;;29.70;17.90;;;;;;;1.73;100.00;96749.13;5036081;28;20190;-64
2022/12/03 10:17:15;;;;;;;33.47;22.53;;;;;;;1.55;100.00;96750.19;5035683;28;20178;-64
2022/12/03 10:19:41;;;;;;;27.23;18.13;;;;;;;1.23;100.00;96742.59;5035583;28;20662;-64
2022/12/03 10:22:07;;;;;;;27.10;18.57;;;;;;;1.20;100.00;96736.03;5035969;28;20221;-65
2022/12/03 10:24:34;;;;;;;30.33;22.27;;;;;;;1.26;100.00;96726.81;5034521;28;20190;-65
2022/12/03 10:27:28;;;;;;;29.10;19.73;;;;;;;1.09;100.00;96720.09;5035228;28;20183;-65
2022/12/03 10:29:58;;;;;;;28.07;17.87;;;;;;;1.14;100.00;96722.97;5034806;28;20217;-64
2022/12/03 10:32:26;;;;;;;28.77;17.93;;;;;;;1.34;100.00;96724.16;5035547;28;20278;-65
2022/12/03 10:35:06;;;;;;;27.23;17.23;;;;;;;1.40;100.00;96718.31;5035544;28;20178;-65
2022/12/03 10:37:31;;;;;;;26.67;17.93;;;;;;;1.33;100.00;96720.00;5017560;28;20673;-65
2022/12/03 10:40:08;;;;;;;30.70;18.47;;;;;;;1.16;100.00;96721.84;5035042;28;20285;-65
2022/12/03 10:42:38;;;;;;;28.60;17.47;;;;;;;1.37;100.00;96723.03;5035513;28;20214;-65
2022/12/03 10:45:15;;;;;;;27.33;17.53;;;;;;;1.43;100.00;96718.00;5035158;28;20185;-66
2022/12/03 10:47:42;;;;;;;27.27;17.20;;;;;;;1.46;100.00;96712.47;5035175;28;20540;-66
2022/12/03 10:50:17;;;;;;;28.53;18.80;;;;;;;1.16;100.00;96713.31;5035145;28;20190;-65
2022/12/03 10:52:43;;;;;;;30.63;19.33;;;;;;;1.00;100.00;96703.06;5035263;28;20526;-65
2022/12/03 10:55:12;;;;;;;27.73;17.80;;;;;;;1.14;100.00;96699.75;5035130;28;20191;-64
2022/12/03 10:57:38;;;;;;;28.20;18.07;;;;;;;1.22;100.00;96694.56;5034916;28;20174;-64
2022/12/03 11:00:04;;;;;;;31.97;19.77;;;;;;;1.33;100.00;96689.00;5034348;28;20643;-65
2022/12/03 11:02:30;;;;;;;30.07;22.43;;;;;;;1.17;100.00;96681.38;5034547;28;20182;-64
2022/12/03 11:04:55;;;;;;;27.17;18.10;;;;;;;1.04;100.00;96692.22;5034881;28;20273;-65
2022/12/03 11:07:21;;;;;;;33.67;25.53;;;;;;;1.10;100.00;96680.44;5016982;28;20194;-64
2022/12/03 11:09:49;;;;;;;24.43;16.67;;;;;;;1.08;100.00;96678.00;5034707;28;20627;-63
2022/12/03 11:12:24;;;;;;;26.87;16.10;;;;;;;1.12;100.00;96675.88;5018257;28;20205;-64
2022/12/03 11:14:49;;;;;;;24.70;16.07;;;;;;;1.30;100.00;96680.78;5034575;28;20190;-63
2022/12/03 11:17:23;;;;;;;26.33;15.97;;;;;;;1.66;100.00;96677.47;5034527;28;20545;-63
2022/12/03 11:19:50;;;;;;;27.37;15.73;;;;;;;1.77;100.00;96678.03;5034271;28;20182;-63
2022/12/03 11:22:27;;;;;;;24.77;15.00;;;;;;;1.65;100.00;96668.13;5034335;28;20183;-64
2022/12/03 11:25:24;;;;;;;25.33;15.17;;;;;;;1.57;100.00;96670.75;5034438;28;20194;-64
2022/12/03 11:28:11;;;;;;;25.20;15.77;;;;;;;1.42;100.00;96667.31;4976215;28;20199;-64
2022/12/03 11:30:52;;;;;;;21.67;15.50;;;;;;;1.24;100.00;96674.53;5031340;28;20180;-64
2022/12/03 11:33:25;;;;;;;23.57;15.70;;;;;;;1.39;100.00;96666.88;5035094;28;20190;-64
2022/12/03 11:36:03;;;;;;;21.30;14.40;;;;;;;1.44;100.00;96672.31;5034716;28;20507;-64